Time;durP1;ratioP1;P1;durP2;ratioP2;P2;SDS_P1;SDS_P2;PMS_P1;PMS_P2;Temp;Humidity;BMP_temperature;BMP_pressure;BME280_temperature;BME280_humidity;BME280_pressure;Samples;Min_cycle;Max_cycle;Signal;HPM_P1;HPM_P2
2022/10/02 00:01:43;;;;;;;54.20;4.70;;;;;;;15.37;86.61;101235.56;5014122;28;20117;-75
2022/10/02 00:04:12;;;;;;;40.70;4.87;;;;;;;15.32;86.61;101236.22;4997742;28;20034;-74
2022/10/02 00:06:44;;;;;;;49.13;4.95;;;;;;;15.31;86.77;101244.53;4999253;28;20029;-74
2022/10/02 00:09:16;;;;;;;46.30;4.38;;;;;;;15.28;86.68;101240.34;4997280;28;20034;-74
2022/10/02 00:11:44;;;;;;;43.55;4.18;;;;;;;15.28;87.18;101255.78;4997688;28;20390;-74
2022/10/02 00:14:15;;;;;;;38.83;4.57;;;;;;;15.26;87.15;101255.16;5015708;28;20461;-75
2022/10/02 00:16:45;;;;;;;47.33;5.43;;;;;;;15.25;87.28;101253.50;5007343;28;20054;-75
2022/10/02 00:19:15;;;;;;;41.75;4.15;;;;;;;15.22;87.61;101253.88;4996257;28;20486;-74
2022/10/02 00:22:01;;;;;;;41.75;4.65;;;;;;;15.21;87.73;101255.75;5014404;28;20061;-75
2022/10/02 00:24:51;;;;;;;54.05;4.90;;;;;;;15.20;87.96;101255.97;5013509;28;20141;-75
2022/10/02 00:27:28;;;;;;;62.67;5.30;;;;;;;15.17;88.39;101267.22;5013014;28;20038;-75
2022/10/02 00:29:54;;;;;;;;;;;;;;;15.17;89.16;101267.22;4989050;28;20062;-75
2022/10/02 00:32:41;;;;;;;59.03;6.43;;;;;;;15.17;89.69;101268.06;4995798;28;20293;-76
2022/10/02 00:35:38;;;;;;;53.63;5.18;;;;;;;15.21;89.92;101271.19;4996520;28;20061;-75
2022/10/02 00:38:12;;;;;;;43.03;4.05;;;;;;;15.25;89.78;101265.19;5015274;28;20119;-76
2022/10/02 00:40:46;;;;;;;40.85;4.30;;;;;;;15.28;89.48;101280.19;5011211;28;20033;-75
2022/10/02 00:43:33;;;;;;;43.78;5.05;;;;;;;15.37;88.85;101276.25;5011878;28;20052;-75
2022/10/02 00:46:01;;;;;;;45.63;4.90;;;;;;;15.40;88.92;101278.56;5014313;28;20038;-76
2022/10/02 00:48:42;;;;;;;51.00;4.65;;;;;;;15.41;88.86;101271.28;5014119;28;20049;-75
2022/10/02 00:51:20;;;;;;;35.30;3.50;;;;;;;15.39;88.89;101271.47;5013367;28;20069;-75
2022/10/02 00:54:10;;;;;;;45.83;4.32;;;;;;;15.37;88.77;101273.53;4961623;28;20042;-75
2022/10/02 00:57:00;;;;;;;44.08;4.10;;;;;;;15.32;88.63;101276.03;5012248;28;20370;-76
2022/10/02 00:59:28;;;;;;;65.03;5.53;;;;;;;15.27;88.66;101267.66;5013191;28;20021;-74
2022/10/02 01:02:06;;;;;;;51.20;4.43;;;;;;;15.25;88.93;101277.91;5015238;28;20034;-74
2022/10/02 01:04:32;;;;;;;;;;;;;;;15.27;88.89;101278.50;4990404;28;20030;-75
2022/10/02 01:06:58;;;;;;;55.03;3.97;;;;;;;15.23;88.83;101283.50;4973982;28;19921;-74
2022/10/02 01:09:24;;;;;;;44.78;4.30;;;;;;;15.19;89.41;101276.81;5013984;28;20354;-74
2022/10/02 01:11:50;;;;;;;58.45;4.88;;;;;;;15.18;89.68;101279.75;4996449;28;20034;-73
2022/10/02 01:14:15;;;;;;;53.40;4.22;;;;;;;15.15;89.97;101283.69;4996598;28;20104;-75
2022/10/02 01:16:41;;;;;;;46.30;4.18;;;;;;;15.17;89.82;101273.47;5014494;28;20038;-75
2022/10/02 01:19:35;;;;;;;62.03;5.35;;;;;;;15.18;89.95;101286.00;5016696;28;20442;-74
2022/10/02 01:22:09;;;;;;;48.00;4.28;;;;;;;15.16;89.58;101285.34;5003827;28;20038;-75
2022/10/02 01:24:45;;;;;;;43.20;4.53;;;;;;;15.20;89.31;101280.38;5014153;28;20057;-74
2022/10/02 01:27:10;;;;;;;57.97;5.35;;;;;;;15.18;89.06;101282.44;5008989;28;20041;-74
2022/10/02 01:29:36;;;;;;;48.05;3.90;;;;;;;15.20;88.47;101283.09;5016547;28;20030;-75
2022/10/02 01:32:01;;;;;;;63.55;4.93;;;;;;;15.18;88.30;101290.59;5017051;28;20098;-75
2022/10/02 01:34:27;;;;;;;49.03;4.60;;;;;;;15.09;88.66;101288.03;5016942;28;20083;-75
2022/10/02 01:36:52;;;;;;;52.88;5.22;;;;;;;15.08;88.68;101296.38;5017026;28;20041;-74
2022/10/02 01:39:18;;;;;;;47.25;4.50;;;;;;;15.08;88.83;101286.34;4996281;28;20038;-75
2022/10/02 01:41:43;;;;;;;49.20;3.88;;;;;;;15.05;88.95;101291.34;4985684;28;20026;-75
2022/10/02 01:44:09;;;;;;;47.13;4.75;;;;;;;15.00;89.28;101300.06;4997332;28;20084;-75
2022/10/02 01:46:56;;;;;;;49.80;4.35;;;;;;;14.95;89.56;101302.53;5015461;28;20022;-74
2022/10/02 01:49:31;;;;;;;38.30;4.50;;;;;;;14.91;89.87;101296.69;5015500;28;20025;-75
2022/10/02 01:52:21;;;;;;;46.00;4.15;;;;;;;14.87;89.91;101308.13;5014752;28;20030;-75
2022/10/02 01:55:31;;;;;;;38.65;3.67;;;;;;;14.84;90.10;101308.53;4985024;28;20444;-75
2022/10/02 01:58:16;;;;;;;64.70;4.95;;;;;;;14.82;90.31;101308.72;4980725;28;20438;-75
2022/10/02 02:01:06;;;;;;;47.42;4.57;;;;;;;14.81;90.32;101308.94;5028680;28;20026;-75
2022/10/02 02:04:02;;;;;;;47.75;4.55;;;;;;;14.79;90.48;101308.28;4998674;28;20022;-75
2022/10/02 02:06:49;;;;;;;56.30;4.55;;;;;;;14.79;90.92;101313.72;5003336;28;20058;-73
2022/10/02 02:09:19;;;;;;;41.72;4.85;;;;;;;14.80;91.14;101312.69;5003517;28;20478;-75
2022/10/02 02:11:54;;;;;;;58.83;4.40;;;;;;;14.79;91.25;101313.72;5014343;28;20045;-74
2022/10/02 02:14:26;;;;;;;43.92;4.75;;;;;;;14.81;91.43;101306.22;5000450;28;20113;-75
2022/10/02 02:16:57;;;;;;;49.70;5.28;;;;;;;14.83;91.47;101315.81;4996151;28;20038;-74
2022/10/02 02:19:36;;;;;;;43.45;5.25;;;;;;;14.83;91.72;101318.53;5000287;28;20501;-75
2022/10/02 02:22:08;;;;;;;45.80;4.65;;;;;;;14.83;91.80;101320.41;5014847;28;20034;-75
2022/10/02 02:24:39;;;;;;;28.52;2.90;;;;;;;14.82;91.28;101313.31;5016614;28;20021;-75
2022/10/02 02:27:05;;;;;;;41.45;4.20;;;;;;;14.82;91.62;101313.31;5014082;28;20052;-74
2022/10/02 02:29:33;;;;;;;42.38;4.32;;;;;;;14.81;91.39;101317.06;4996324;28;20034;-75
2022/10/02 02:31:59;;;;;;;52.22;4.97;;;;;;;14.80;91.32;101313.53;4997541;28;20116;-75
2022/10/02 02:34:29;;;;;;;39.85;3.72;;;;;;;14.80;90.96;101323.53;4996761;28;20401;-74
2022/10/02 02:36:58;;;;;;;38.25;4.05;;;;;;;14.82;90.98;101318.72;4995006;28;20025;-75
2022/10/02 02:39:33;;;;;;;50.55;4.68;;;;;;;14.88;90.65;101317.94;5001163;28;20100;-75
2022/10/02 02:42:01;;;;;;;32.05;2.78;;;;;;;14.89;89.74;101320.44;5018362;28;20308;-74
2022/10/02 02:44:31;;;;;;;33.95;3.03;;;;;;;14.89;89.67;101319.63;5000375;28;20037;-74
2022/10/02 02:47:02;;;;;;;25.15;2.70;;;;;;;14.93;87.50;101318.19;4984443;28;20095;-75
2022/10/02 02:49:39;;;;;;;39.30;3.58;;;;;;;14.96;86.10;101323.22;5000888;28;20093;-74
2022/10/02 02:52:10;;;;;;;37.88;3.60;;;;;;;14.96;85.36;101315.09;5016143;28;20076;-76
2022/10/02 02:54:41;;;;;;;24.98;3.28;;;;;;;14.94;85.28;101322.56;5012592;28;20026;-75
2022/10/02 02:57:07;;;;;;;31.15;3.25;;;;;;;14.93;84.74;101321.72;4993929;28;20076;-74
2022/10/02 02:59:33;;;;;;;35.30;3.33;;;;;;;14.93;84.94;101329.88;5011937;28;20436;-75
2022/10/02 03:01:59;;;;;;;35.10;3.60;;;;;;;14.92;84.35;101330.06;4995224;28;20026;-74
2022/10/02 03:04:24;;;;;;;39.28;4.18;;;;;;;14.90;84.75;101332.97;4994924;28;20033;-75
2022/10/02 03:06:51;;;;;;;38.17;2.80;;;;;;;14.89;85.22;101330.44;5011155;28;20042;-75
2022/10/02 03:09:19;;;;;;;35.95;3.53;;;;;;;14.90;85.40;101332.13;4993532;28;20033;-75
2022/10/02 03:11:51;;;;;;;31.52;3.38;;;;;;;14.90;85.93;101329.41;5010695;28;20537;-75
2022/10/02 03:14:42;;;;;;;29.65;3.92;;;;;;;14.92;85.93;101336.31;4998045;28;20049;-75
2022/10/02 03:17:36;;;;;;;45.67;3.75;;;;;;;14.90;86.13;101334.81;4977620;28;20050;-75
2022/10/02 03:20:20;;;;;;;43.45;3.67;;;;;;;14.83;86.86;101336.69;4958071;28;20039;-75
2022/10/02 03:23:09;;;;;;;41.72;5.20;;;;;;;14.77;87.29;101342.88;4969752;28;20572;-76
2022/10/02 03:25:42;;;;;;;33.85;3.97;;;;;;;14.73;87.72;101341.59;4959745;28;20035;-75
2022/10/02 03:28:18;;;;;;;46.22;3.63;;;;;;;14.66;88.07;101338.81;4960266;28;20103;-75
2022/10/02 03:30:44;;;;;;;39.00;3.63;;;;;;;14.62;88.35;101341.09;4960545;28;20054;-75
2022/10/02 03:33:12;;;;;;;44.80;3.92;;;;;;;14.61;88.96;101334.03;4959274;28;20046;-75
2022/10/02 03:35:37;;;;;;;47.25;3.80;;;;;;;14.58;88.96;101337.09;4958975;28;20128;-75
2022/10/02 03:38:05;;;;;;;41.13;3.58;;;;;;;14.54;89.33;101327.72;4972881;28;20046;-75
2022/10/02 03:40:31;;;;;;;;;;;;;;;14.52;89.72;101334.31;4959342;28;20030;-75
2022/10/02 03:42:57;;;;;;;38.13;3.95;;;;;;;14.50;90.24;101329.91;4973932;28;20073;-74
2022/10/02 03:45:23;;;;;;;30.88;3.38;;;;;;;14.48;90.73;101333.84;4958013;28;20078;-74
2022/10/02 03:47:49;;;;;;;44.42;4.22;;;;;;;14.50;90.56;101337.22;4991542;28;20054;-74
2022/10/02 03:50:15;;;;;;;42.67;3.17;;;;;;;14.53;90.87;101338.72;5015784;28;20026;-74
2022/10/02 03:52:40;;;;;;;39.15;4.22;;;;;;;14.57;91.11;101327.31;5014358;28;20037;-74
2022/10/02 03:55:31;;;;;;;33.75;3.90;;;;;;;14.60;91.39;101328.78;5014275;28;20033;-73
2022/10/02 03:57:57;;;;;;;39.17;3.80;;;;;;;14.62;91.64;101334.84;4997444;28;20311;-74
2022/10/02 04:00:28;;;;;;;46.67;3.65;;;;;;;14.61;91.99;101339.44;4996779;28;20037;-74
2022/10/02 04:02:55;;;;;;;42.20;4.10;;;;;;;14.61;91.90;101333.16;5014533;28;20036;-74
2022/10/02 04:05:24;;;;;;;33.40;3.28;;;;;;;14.61;91.69;101328.59;4998830;28;20030;-74
2022/10/02 04:07:54;;;;;;;31.58;2.85;;;;;;;14.60;91.43;101321.50;4987690;28;20410;-73
2022/10/02 04:10:43;;;;;;;40.55;3.67;;;;;;;14.57;91.33;101326.47;5003531;28;20029;-74
2022/10/02 04:13:16;;;;;;;44.25;3.80;;;;;;;14.53;91.06;101326.00;5016694;28;20778;-74
2022/10/02 04:16:05;;;;;;;25.88;3.22;;;;;;;14.51;91.34;101336.19;4996453;28;20041;-74
2022/10/02 04:18:36;;;;;;;32.97;3.40;;;;;;;14.46;91.54;101346.78;4996357;28;20038;-75
2022/10/02 04:21:19;;;;;;;30.30;2.92;;;;;;;14.41;92.33;101341.94;5012908;28;20034;-75
2022/10/02 04:23:52;;;;;;;38.63;3.40;;;;;;;14.41;92.40;101344.66;4980178;28;20108;-75
2022/10/02 04:26:39;;;;;;;43.92;3.63;;;;;;;14.39;92.40;101356.72;4995019;28;20110;-75
2022/10/02 04:29:23;;;;;;;35.47;3.47;;;;;;;14.40;92.31;101363.78;5011431;28;20104;-75
2022/10/02 04:31:53;;;;;;;39.65;3.85;;;;;;;14.41;92.11;101360.91;4996169;28;20529;-74
2022/10/02 04:34:19;;;;;;;36.72;4.15;;;;;;;14.43;92.06;101352.59;4995945;28;20034;-74
2022/10/02 04:37:19;;;;;;;39.95;4.93;;;;;;;14.47;91.89;101360.09;5013614;28;20445;-74
2022/10/02 04:40:21;;;;;;;44.35;3.53;;;;;;;14.49;91.67;101357.22;4934045;29;20373;-75
2022/10/02 04:43:08;;;;;;;48.97;4.57;;;;;;;14.51;91.67;101363.28;5013544;28;20030;-74
2022/10/02 04:45:44;;;;;;;34.40;3.30;;;;;;;14.57;91.05;101358.97;5019251;28;20041;-78
2022/10/02 04:48:35;;;;;;;35.67;3.40;;;;;;;14.56;90.56;101368.13;5013819;28;20033;-75
2022/10/02 04:51:23;;;;;;;37.03;3.38;;;;;;;14.53;89.90;101385.59;5014399;28;20088;-74
2022/10/02 04:54:00;;;;;;;33.58;3.95;;;;;;;14.52;89.68;101385.78;4997101;28;20049;-75
2022/10/02 04:56:29;;;;;;;36.00;3.72;;;;;;;14.52;89.84;101389.31;5012787;28;21173;-76
2022/10/02 04:59:18;;;;;;;36.67;3.20;;;;;;;14.53;89.70;101398.31;5014279;28;20038;-74
2022/10/02 05:02:02;;;;;;;44.88;4.43;;;;;;;14.49;89.65;101408.69;5016609;28;20034;-76
2022/10/02 05:05:03;;;;;;;31.83;3.90;;;;;;;14.49;89.83;101414.94;5018206;28;20038;-76
2022/10/02 05:07:44;;;;;;;26.85;3.22;;;;;;;14.48;89.81;101415.09;4999696;28;20057;-75
2022/10/02 05:10:29;;;;;;;30.17;2.90;;;;;;;14.53;88.84;101412.69;5001033;28;20026;-76
2022/10/02 05:13:01;;;;;;;28.80;3.47;;;;;;;14.50;88.46;101423.88;5014342;28;20540;-75
2022/10/02 05:15:55;;;;;;;35.17;3.65;;;;;;;14.43;88.94;101412.16;5012212;28;20163;-76
2022/10/02 05:18:39;;;;;;;26.95;2.63;;;;;;;14.37;88.64;101427.28;4997739;28;20405;-74
2022/10/02 05:21:26;;;;;;;36.38;3.67;;;;;;;14.36;88.02;101427.50;5018486;28;20034;-75
2022/10/02 05:24:10;;;;;;;27.25;3.00;;;;;;;14.32;87.76;101421.63;5001821;28;20094;-78
2022/10/02 05:26:48;;;;;;;37.22;4.05;;;;;;;14.33;87.48;101427.91;5018247;28;20034;-75
2022/10/02 05:29:51;;;;;;;28.85;2.95;;;;;;;14.31;87.62;101433.50;5001576;28;20064;-77
2022/10/02 05:32:50;;;;;;;40.13;3.53;;;;;;;14.38;87.41;101441.69;5016062;28;20049;-74
2022/10/02 05:35:33;;;;;;;32.05;3.63;;;;;;;14.39;87.83;101425.25;5016240;28;20089;-75
2022/10/02 05:38:02;;;;;;;38.33;3.47;;;;;;;14.44;87.57;101430.91;5014287;28;20030;-75
2022/10/02 05:41:05;;;;;;;40.22;3.85;;;;;;;14.48;87.16;101428.66;5012022;28;20113;-77
2022/10/02 05:43:48;;;;;;;29.05;3.28;;;;;;;14.50;87.36;101445.56;5012201;28;20026;-76
2022/10/02 05:46:20;;;;;;;29.42;3.40;;;;;;;14.50;87.42;101442.84;4996148;28;20046;-77
2022/10/02 05:48:53;;;;;;;35.83;3.40;;;;;;;14.47;87.48;101445.94;4980460;28;20228;-75
2022/10/02 05:51:39;;;;;;;34.53;3.67;;;;;;;14.47;87.49;101452.19;4995897;28;20030;-75
2022/10/02 05:54:27;;;;;;;31.80;3.25;;;;;;;14.50;87.49;101454.50;4979670;28;20036;-77
2022/10/02 05:57:05;;;;;;;27.90;2.70;;;;;;;14.50;86.97;101445.56;4967616;28;20038;-76
2022/10/02 05:59:34;;;;;;;36.40;3.65;;;;;;;14.52;86.70;101454.31;4985141;28;20577;-74
2022/10/02 06:02:14;;;;;;;31.92;3.47;;;;;;;14.54;86.50;101456.88;4979230;28;20101;-76
2022/10/02 06:04:43;;;;;;;32.83;3.45;;;;;;;14.58;86.08;101458.16;4994156;28;20087;-75
2022/10/02 06:07:12;;;;;;;34.60;3.70;;;;;;;14.57;85.65;101449.19;4992850;28;20053;-74
2022/10/02 06:09:54;;;;;;;42.05;3.30;;;;;;;14.54;85.74;101459.59;5010539;28;20041;-76
2022/10/02 06:12:32;;;;;;;45.58;4.18;;;;;;;14.49;86.02;101458.25;4997439;28;20041;-77
2022/10/02 06:15:06;;;;;;;41.33;4.88;;;;;;;14.47;86.48;101464.91;5004224;28;20029;-76
2022/10/02 06:17:41;;;;;;;36.35;3.50;;;;;;;14.45;86.97;101464.25;5006003;28;20033;-80
2022/10/02 06:20:32;;;;;;;28.52;2.90;;;;;;;14.42;87.33;101475.47;5005550;28;20037;-77
2022/10/02 06:23:18;;;;;;;36.42;3.47;;;;;;;14.44;86.80;101481.53;5020624;28;20030;-74
2022/10/02 06:25:44;;;;;;;40.65;3.92;;;;;;;14.43;86.92;101482.59;5016352;28;20036;-76
2022/10/02 06:28:12;;;;;;;31.77;3.30;;;;;;;14.43;86.93;101488.00;5013608;28;20029;-76
2022/10/02 06:30:40;;;;;;;30.58;3.75;;;;;;;14.45;86.89;101486.75;5011799;28;20033;-76
2022/10/02 06:33:11;;;;;;;38.42;4.28;;;;;;;14.49;86.32;101492.63;4996725;28;20025;-75
2022/10/02 06:36:15;;;;;;;31.70;3.53;;;;;;;14.57;85.67;101487.13;5000151;28;20037;-76
2022/10/02 06:38:59;;;;;;;43.85;4.28;;;;;;;14.71;85.42;101488.94;5012656;28;20036;-74
2022/10/02 06:41:46;;;;;;;40.38;3.63;;;;;;;14.82;83.97;101503.81;5012911;28;20441;-77
2022/10/02 06:44:15;;;;;;;31.73;3.67;;;;;;;14.93;82.53;101506.03;5011890;28;20553;-74
2022/10/02 06:46:54;;;;;;;36.50;3.00;;;;;;;14.93;82.17;101499.78;5013064;28;20030;-75
2022/10/02 06:49:38;;;;;;;38.72;3.58;;;;;;;14.96;82.43;101503.97;5002102;28;20025;-75
2022/10/02 06:52:15;;;;;;;36.78;3.53;;;;;;;15.03;82.48;101505.69;5026883;28;20101;-74
2022/10/02 06:55:05;;;;;;;31.00;3.08;;;;;;;15.07;82.47;101515.13;5025900;28;20041;-77
2022/10/02 06:57:49;;;;;;;34.63;4.32;;;;;;;15.20;81.96;101514.41;5022434;28;20038;-77
2022/10/02 07:00:17;;;;;;;32.28;3.10;;;;;;;15.34;81.21;101518.88;5006091;28;20038;-78
2022/10/02 07:03:21;;;;;;;29.00;3.22;;;;;;;15.47;80.96;101525.44;4968604;28;20458;-75
2022/10/02 07:05:59;;;;;;;37.95;4.30;;;;;;;15.46;81.46;101515.66;4985178;28;20033;-76
2022/10/02 07:08:49;;;;;;;37.97;4.60;;;;;;;15.46;81.00;101516.47;4997750;28;20057;-77
2022/10/02 07:11:31;;;;;;;44.67;3.20;;;;;;;15.45;81.51;101524.81;4982437;28;20030;-76
2022/10/02 07:14:03;;;;;;;38.33;3.65;;;;;;;15.41;81.77;101524.38;4983552;28;20132;-76
2022/10/02 07:16:41;;;;;;;35.50;4.10;;;;;;;15.33;81.53;101521.81;5022580;28;20513;-74
2022/10/02 07:19:29;;;;;;;33.17;3.42;;;;;;;15.29;81.78;101525.94;5027290;28;20034;-73
2022/10/02 07:22:18;;;;;;;28.15;3.10;;;;;;;15.27;82.40;101528.84;4993650;28;20078;-73
2022/10/02 07:24:57;;;;;;;31.05;3.80;;;;;;;15.32;82.35;101528.25;5002288;28;20331;-74
2022/10/02 07:27:34;;;;;;;35.58;3.65;;;;;;;15.24;82.18;101539.25;5002658;28;20120;-74
2022/10/02 07:30:14;;;;;;;39.28;4.20;;;;;;;15.31;82.05;101540.13;4983295;28;20546;-74
2022/10/02 07:32:42;;;;;;;31.88;4.15;;;;;;;15.34;81.66;101531.59;4985070;28;20036;-74
2022/10/02 07:35:26;;;;;;;27.92;3.58;;;;;;;15.38;82.17;101535.63;5001116;28;20474;-73
2022/10/02 07:38:09;;;;;;;32.80;3.17;;;;;;;15.49;82.47;101539.66;5021281;28;20048;-73
2022/10/02 07:40:43;;;;;;;33.50;3.53;;;;;;;15.60;81.40;101533.69;5030534;28;20081;-75
2022/10/02 07:43:32;;;;;;;28.50;3.05;;;;;;;15.69;80.88;101535.25;5008620;28;20029;-75
2022/10/02 07:46:18;;;;;;;34.35;3.90;;;;;;;15.92;79.94;101536.84;5025310;28;20089;-74
2022/10/02 07:49:05;;;;;;;26.17;3.00;;;;;;;16.03;78.94;101544.41;5005758;28;20045;-75
2022/10/02 07:51:46;;;;;;;40.85;3.25;;;;;;;16.09;79.15;101548.19;5013536;28;20061;-75
2022/10/02 07:54:38;;;;;;;40.42;4.43;;;;;;;16.13;78.99;101554.91;5000638;28;20030;-74
2022/10/02 07:57:16;;;;;;;33.35;3.35;;;;;;;16.17;78.56;101557.03;5009644;28;20409;-75
2022/10/02 07:59:42;;;;;;;36.17;3.78;;;;;;;16.17;79.54;101562.44;5003575;28;20167;-75
2022/10/02 08:02:36;;;;;;;45.13;4.43;;;;;;;16.19;79.47;101564.94;5002816;28;20035;-75
2022/10/02 08:05:07;;;;;;;38.42;3.80;;;;;;;16.27;79.02;101564.78;4988769;28;20128;-77
2022/10/02 08:07:33;;;;;;;54.80;4.35;;;;;;;16.34;78.36;101564.81;5025065;28;20037;-76
2022/10/02 08:10:02;;;;;;;41.20;4.20;;;;;;;16.41;78.25;101576.56;5025990;28;20089;-74
2022/10/02 08:12:32;;;;;;;41.33;4.35;;;;;;;16.50;77.19;101575.34;5010748;28;20034;-75
2022/10/02 08:14:58;;;;;;;38.08;4.55;;;;;;;16.66;76.69;101582.28;4994368;28;20516;-74
2022/10/02 08:17:39;;;;;;;41.72;4.07;;;;;;;16.83;74.77;101591.78;5001012;28;20375;-73
2022/10/02 08:20:28;;;;;;;36.10;3.85;;;;;;;16.78;74.55;101590.72;5002754;28;20035;-74
2022/10/02 08:23:02;;;;;;;39.28;3.45;;;;;;;16.75;74.90;101596.56;5000108;28;20076;-75
2022/10/02 08:25:31;;;;;;;43.33;3.78;;;;;;;16.72;74.86;101600.50;5021116;28;20088;-74
2022/10/02 08:28:02;;;;;;;32.70;3.95;;;;;;;16.57;75.53;101599.81;5002315;28;20044;-74
2022/10/02 08:30:27;;;;;;;23.10;3.50;;;;;;;16.45;75.23;101608.53;4992702;28;20556;-74
2022/10/02 08:32:53;;;;;;;34.65;3.28;;;;;;;16.48;73.68;101614.63;5027630;28;20034;-73
2022/10/02 08:35:19;;;;;;;29.48;3.03;;;;;;;16.52;73.91;101614.00;5000645;28;20057;-73
2022/10/02 08:38:11;;;;;;;26.50;3.40;;;;;;;16.42;74.51;101608.94;4989648;28;20038;-76
2022/10/02 08:41:01;;;;;;;31.90;3.70;;;;;;;16.48;75.58;101625.47;5000650;28;20052;-74
2022/10/02 08:43:43;;;;;;;23.20;3.28;;;;;;;16.80;74.88;101630.25;5020351;28;20049;-75
2022/10/02 08:46:18;;;;;;;35.38;3.75;;;;;;;17.03;73.64;101629.06;5019989;28;20026;-75
2022/10/02 08:48:54;;;;;;;31.63;3.58;;;;;;;17.15;72.69;101630.13;4997233;28;20035;-74
2022/10/02 08:51:45;;;;;;;23.13;3.15;;;;;;;17.18;72.73;101629.72;4996073;28;20104;-76
2022/10/02 08:54:20;;;;;;;37.05;3.63;;;;;;;17.20;72.21;101633.09;4955625;28;20038;-75
2022/10/02 08:57:13;;;;;;;37.35;3.70;;;;;;;17.27;71.69;101633.06;5004316;28;20536;-76
2022/10/02 09:00:04;;;;;;;28.73;4.15;;;;;;;17.38;71.18;101628.91;4997005;28;20045;-76
2022/10/02 09:02:36;;;;;;;26.70;2.70;;;;;;;17.30;71.64;101649.84;4998146;28;20037;-76
2022/10/02 09:05:04;;;;;;;22.30;3.22;;;;;;;17.34;70.87;101645.66;5014621;28;20030;-75
2022/10/02 09:07:42;;;;;;;26.38;2.80;;;;;;;17.44;70.19;101649.84;5013770;28;20133;-76
2022/10/02 09:10:36;;;;;;;30.63;3.50;;;;;;;17.34;69.84;101656.53;5016008;28;20032;-75
2022/10/02 09:13:39;;;;;;;23.88;4.00;;;;;;;17.33;67.40;101654.03;5016255;28;20034;-76
2022/10/02 09:16:14;;;;;;;21.75;2.92;;;;;;;17.29;64.99;101658.19;4996684;28;20038;-76
2022/10/02 09:19:22;;;;;;;30.40;4.20;;;;;;;17.20;66.26;101654.00;5000426;28;20114;-75
2022/10/02 09:21:51;;;;;;;27.10;2.83;;;;;;;17.19;66.42;101660.47;5008977;28;20076;-75
2022/10/02 09:24:25;;;;;;;25.10;3.45;;;;;;;17.31;66.88;101659.66;5018943;28;20058;-75
2022/10/02 09:27:12;;;;;;;22.75;2.72;;;;;;;17.36;66.72;101663.66;5023617;28;20049;-74
2022/10/02 09:29:56;;;;;;;18.05;2.80;;;;;;;17.44;66.14;101663.47;5006375;28;20056;-75
2022/10/02 09:32:42;;;;;;;25.17;3.20;;;;;;;17.63;65.67;101665.34;5024840;28;20141;-75
2022/10/02 09:35:32;;;;;;;26.35;3.53;;;;;;;17.66;65.90;101675.81;5020638;28;20064;-75
2022/10/02 09:38:20;;;;;;;27.23;3.30;;;;;;;17.60;65.60;101682.09;4996610;28;20030;-75
2022/10/02 09:41:23;;;;;;;26.98;2.97;;;;;;;17.57;66.22;101690.69;4997008;28;20117;-73
2022/10/02 09:44:22;;;;;;;30.10;3.03;;;;;;;17.39;64.78;101682.28;5012174;28;20022;-74
2022/10/02 09:47:10;;;;;;;36.33;4.00;;;;;;;17.58;65.65;101692.38;5010856;28;20527;-76
2022/10/02 09:50:06;;;;;;;31.80;3.90;;;;;;;17.84;64.79;101679.84;5014672;28;20025;-76
2022/10/02 09:52:59;;;;;;;34.60;3.50;;;;;;;17.94;64.86;101694.72;5015177;28;20105;-74
2022/10/02 09:55:35;;;;;;;24.38;3.13;;;;;;;18.18;64.36;101685.06;5017530;28;20041;-75
2022/10/02 09:58:12;;;;;;;31.95;3.00;;;;;;;18.39;63.42;101692.16;5013114;28;20033;-74
2022/10/02 10:01:00;;;;;;;26.45;3.30;;;;;;;18.50;63.01;101692.53;5014022;28;20034;-75
2022/10/02 10:03:35;;;;;;;32.85;3.95;;;;;;;18.34;61.86;101710.19;4987360;28;20491;-76
2022/10/02 10:06:25;;;;;;;24.23;3.17;;;;;;;18.26;61.75;101704.97;5011350;28;20075;-75
2022/10/02 10:09:16;;;;;;;25.17;3.60;;;;;;;18.28;62.44;101716.50;5005660;28;20081;-75
2022/10/02 10:12:11;;;;;;;29.45;4.00;;;;;;;18.43;62.03;101709.75;4997455;28;20033;-73
2022/10/02 10:14:48;;;;;;;32.08;3.83;;;;;;;18.73;62.01;101730.22;4979323;28;20034;-74
2022/10/02 10:17:20;;;;;;;;;;;;;;;18.76;61.96;101725.22;4981632;28;20038;-75
2022/10/02 10:20:08;;;;;;;27.60;3.20;;;;;;;18.87;60.77;101726.44;5002075;28;19975;-73
2022/10/02 10:22:56;;;;;;;27.48;3.38;;;;;;;18.80;61.46;101729.19;4977091;28;20041;-76
2022/10/02 10:25:41;;;;;;;23.42;2.72;;;;;;;18.66;60.88;101735.69;4977707;28;20045;-75
2022/10/02 10:28:25;;;;;;;20.50;3.10;;;;;;;18.59;60.24;101734.91;4994752;28;20077;-76
2022/10/02 10:31:11;;;;;;;23.45;3.03;;;;;;;18.57;61.27;101740.53;4998811;28;20071;-74
2022/10/02 10:34:01;;;;;;;24.75;3.20;;;;;;;18.59;61.36;101738.44;5015261;28;20037;-75
2022/10/02 10:39:48;;;;;;;27.33;3.90;;;;;;;18.67;60.88;101750.16;4989648;28;20504;-74
2022/10/02 10:42:26;;;;;;;24.02;3.72;;;;;;;18.55;59.99;101750.00;5015062;28;20034;-75
2022/10/02 10:45:14;;;;;;;22.48;3.28;;;;;;;18.56;60.52;101747.06;5013497;28;20032;-75
2022/10/02 10:48:18;;;;;;;18.35;2.95;;;;;;;18.54;60.69;101749.16;4995968;28;20117;-74
2022/10/02 10:50:52;;;;;;;26.52;2.80;;;;;;;18.53;60.81;101746.63;5001787;28;20029;-75
2022/10/02 10:53:23;;;;;;;29.80;3.45;;;;;;;18.53;61.63;101752.91;4997840;28;20084;-75
2022/10/02 10:56:26;;;;;;;23.25;3.55;;;;;;;18.55;62.66;101756.28;5015607;28;20109;-75
2022/10/02 10:59:05;;;;;;;38.63;3.85;;;;;;;18.67;62.15;101758.34;5015470;28;20036;-75
2022/10/02 11:01:52;;;;;;;27.92;3.30;;;;;;;18.74;62.47;101764.63;5015912;28;20045;-75
2022/10/02 11:04:25;;;;;;;20.30;2.75;;;;;;;18.74;60.92;101767.34;5010662;28;20041;-75
2022/10/02 11:06:55;;;;;;;21.58;3.38;;;;;;;18.71;60.74;101767.78;4997902;28;20074;-75
2022/10/02 11:09:43;;;;;;;26.27;2.97;;;;;;;18.47;60.78;101774.75;5013288;28;20382;-74
2022/10/02 11:12:11;;;;;;;28.95;3.47;;;;;;;18.46;62.07;101779.38;5013556;28;20133;-74
2022/10/02 11:14:52;;;;;;;24.83;3.03;;;;;;;18.47;62.30;101775.56;5015241;28;20033;-74
2022/10/02 11:17:23;;;;;;;22.73;3.10;;;;;;;18.48;62.17;101782.69;5015576;28;20030;-75
2022/10/02 11:20:19;;;;;;;24.83;3.47;;;;;;;18.62;62.11;101778.91;5005217;28;20049;-75
2022/10/02 11:22:47;;;;;;;43.00;3.95;;;;;;;18.43;62.05;101782.47;5014392;28;20112;-75
2022/10/02 11:25:13;;;;;;;30.33;3.15;;;;;;;18.48;62.50;101779.13;4996905;28;20029;-73
2022/10/02 11:28:06;;;;;;;30.00;3.35;;;;;;;18.33;62.67;101773.94;5006077;28;20501;-75
2022/10/02 11:30:40;;;;;;;27.10;2.75;;;;;;;18.42;62.31;101778.94;5017517;28;20138;-73
2022/10/02 11:33:20;;;;;;;28.75;2.90;;;;;;;18.53;63.49;101780.16;5000519;28;20393;-74
2022/10/02 11:36:04;;;;;;;18.25;2.80;;;;;;;18.98;61.58;101785.75;4979190;28;20038;-75
2022/10/02 11:38:30;;;;;;;30.10;3.33;;;;;;;19.20;63.87;101796.41;5017186;28;20026;-74
2022/10/02 11:41:07;;;;;;;23.88;3.35;;;;;;;19.66;59.07;101789.88;5022546;28;20029;-75
2022/10/02 11:44:08;;;;;;;26.08;3.47;;;;;;;19.64;55.40;101803.75;5021955;28;20482;-75
2022/10/02 11:46:47;;;;;;;26.42;3.60;;;;;;;19.18;57.29;101803.97;5015326;28;20038;-76
2022/10/02 11:49:33;;;;;;;30.67;3.85;;;;;;;18.92;58.26;101800.28;5020106;28;20026;-77
2022/10/02 11:51:58;;;;;;;24.83;2.80;;;;;;;18.86;59.36;101795.69;5019335;28;20026;-76
2022/10/02 11:55:05;;;;;;;28.75;3.22;;;;;;;18.76;57.12;101798.84;5019492;28;20029;-75
2022/10/02 11:57:51;;;;;;;21.95;2.50;;;;;;;18.71;58.20;101805.94;4954191;28;20038;-73
2022/10/02 12:00:35;;;;;;;27.80;3.43;;;;;;;19.21;57.40;101809.81;5020488;28;20037;-76
2022/10/02 12:03:07;;;;;;;24.50;2.80;;;;;;;19.25;57.17;101821.16;5019996;28;20359;-75
2022/10/02 12:06:14;;;;;;;19.33;2.78;;;;;;;18.98;57.61;101821.22;5017558;28;20033;-74
2022/10/02 12:08:43;;;;;;;27.85;3.67;;;;;;;18.69;57.26;101814.34;5017792;28;20054;-74
2022/10/02 12:11:38;;;;;;;26.65;3.78;;;;;;;18.38;58.20;101825.91;5018482;28;20140;-73
2022/10/02 12:14:28;;;;;;;28.10;3.50;;;;;;;18.03;59.53;101825.25;5019406;28;20044;-74
2022/10/02 12:17:15;;;;;;;37.78;3.88;;;;;;;17.94;61.61;101822.72;5000407;28;20034;-74